Time;durP1;ratioP1;P1;durP2;ratioP2;P2;SDS_P1;SDS_P2;PMS_P1;PMS_P2;Temp;Humidity;BMP_temperature;BMP_pressure;BME280_temperature;BME280_humidity;BME280_pressure;Samples;Min_cycle;Max_cycle;Signal;HPM_P1;HPM_P2
2023/03/16 00:02:10;;;;;;;;;;;11.10;99.90;;;;;;6211559;23;19935;-84
2023/03/16 00:04:36;;;;;;;;;;;11.10;99.90;;;;;;6211502;23;19900;-82
2023/03/16 00:07:05;;;;;;;;;;;11.10;99.90;;;;;;6184474;23;19904;-83
2023/03/16 00:09:31;;;;;;;;;;;11.10;99.90;;;;;;6211261;23;19927;-83
2023/03/16 00:11:57;;;;;;;;;;;11.00;99.90;;;;;;6211282;23;19900;-84
2023/03/16 00:14:23;;;;;;;;;;;11.10;99.90;;;;;;6211389;23;19903;-83
2023/03/16 00:16:49;;;;;;;;;;;11.00;99.90;;;;;;6211936;23;20359;-83
2023/03/16 00:19:14;;;;;;;;;;;11.10;99.90;;;;;;6211196;23;19904;-83
2023/03/16 00:21:40;;;;;;;;;;;11.10;99.90;;;;;;6211315;23;19907;-83
2023/03/16 00:24:05;;;;;;;;;;;11.10;99.90;;;;;;6211150;23;19899;-84
2023/03/16 00:26:31;;;;;;;;;;;11.10;99.90;;;;;;6211173;23;19899;-83
2023/03/16 00:28:56;;;;;;;;;;;11.10;99.90;;;;;;6184181;23;19931;-82
2023/03/16 00:31:23;;;;;;;;;;;11.10;99.90;;;;;;6212288;23;20240;-82
2023/03/16 00:33:49;;;;;;;;;;;11.10;99.90;;;;;;6211517;23;20244;-82
2023/03/16 00:36:15;;;;;;;;;;;11.10;99.90;;;;;;6210917;23;19912;-81
2023/03/16 00:38:44;;;;;;;;;;;11.10;99.90;;;;;;6211018;23;19903;-83
2023/03/16 00:41:13;;;;;;;;;;;11.10;99.90;;;;;;6210496;23;19919;-84
2023/03/16 00:43:39;;;;;;;;;;;11.10;99.90;;;;;;6210392;23;19899;-84
2023/03/16 00:46:06;;;;;;;;;;;10.90;99.90;;;;;;6210816;23;19971;-84
2023/03/16 00:48:33;;;;;;;;;;;11.10;99.90;;;;;;6184032;23;19948;-83
2023/03/16 00:51:03;;;;;;;;;;;11.10;99.90;;;;;;6210588;23;20380;-82
2023/03/16 00:53:29;;;;;;;;;;;11.10;99.90;;;;;;6210782;23;19900;-82
2023/03/16 00:55:54;;;;;;;;;;;11.10;99.90;;;;;;6211437;23;20005;-82
2023/03/16 00:58:20;;;;;;;;;;;11.10;99.90;;;;;;6210408;23;19906;-83
2023/03/16 01:00:46;;;;;;;;;;;11.10;99.90;;;;;;6210978;23;20655;-82
2023/03/16 01:03:11;;;;;;;;;;;11.10;99.90;;;;;;6210860;23;20283;-82
2023/03/16 01:05:40;;;;;;;;;;;11.10;99.90;;;;;;6210415;23;19900;-82
2023/03/16 01:08:07;;;;;;;;;;;11.10;99.90;;;;;;6210947;23;19922;-83
2023/03/16 01:10:33;;;;;;;;;;;11.10;99.90;;;;;;6210834;23;19900;-83
2023/03/16 01:12:58;;;;;;;;;;;11.10;99.90;;;;;;6210863;23;20309;-82
2023/03/16 01:15:24;;;;;;;;;;;11.10;99.90;;;;;;6211926;23;19908;-82
2023/03/16 01:17:50;;;;;;;;;;;11.10;99.90;;;;;;6210857;23;19900;-82
2023/03/16 01:20:18;;;;;;;;;;;11.10;99.90;;;;;;6210321;23;19915;-83
2023/03/16 01:22:43;;;;;;;;;;;11.10;99.90;;;;;;6210250;23;19978;-83
2023/03/16 01:25:09;;;;;;;;;;;11.00;99.90;;;;;;6210353;23;20014;-84
2023/03/16 01:27:35;;;;;;;;;;;11.00;99.90;;;;;;6184263;23;19904;-83
2023/03/16 01:30:01;;;;;;;;;;;11.00;99.90;;;;;;6210783;23;19907;-84
2023/03/16 01:32:26;;;;;;;;;;;11.00;99.90;;;;;;6211887;23;19899;-83
2023/03/16 01:34:52;;;;;;;;;;;11.00;99.90;;;;;;6210709;23;19915;-82
2023/03/16 01:37:17;;;;;;;;;;;11.00;99.90;;;;;;6210305;23;19915;-83
2023/03/16 01:39:43;;;;;;;;;;;11.00;99.90;;;;;;6210468;23;19907;-83
2023/03/16 01:42:08;;;;;;;;;;;11.00;99.90;;;;;;6210865;23;19927;-83
2023/03/16 01:44:53;;;;;;;;;;;11.00;99.90;;;;;;6210699;23;19899;-83
2023/03/16 01:47:18;;;;;;;;;;;10.90;99.90;;;;;;6210385;23;20283;-83
2023/03/16 01:49:47;;;;;;;;;;;10.90;99.90;;;;;;6210657;23;19946;-82
2023/03/16 01:52:18;;;;;;;;;;;10.90;99.90;;;;;;6210709;23;19900;-83
2023/03/16 01:54:48;;;;;;;;;;;10.90;99.90;;;;;;6210191;23;19999;-83
2023/03/16 01:57:16;;;;;;;;;;;10.90;99.90;;;;;;6209777;23;19906;-82
2023/03/16 01:59:42;;;;;;;;;;;10.80;99.90;;;;;;6210459;23;19900;-82
2023/03/16 02:02:08;;;;;;;;;;;10.80;99.90;;;;;;6210573;23;20241;-84
2023/03/16 02:04:37;;;;;;;;;;;10.80;99.90;;;;;;6210629;23;19907;-83
2023/03/16 02:07:05;;;;;;;;;;;10.70;99.90;;;;;;6210161;23;19904;-84
2023/03/16 02:09:32;;;;;;;;;;;10.70;99.90;;;;;;6212014;23;19900;-84
2023/03/16 02:11:58;;;;;;;;;;;10.70;99.90;;;;;;6212766;23;19900;-83
2023/03/16 02:14:24;;;;;;;;;;;10.70;99.90;;;;;;6212373;23;19911;-83
2023/03/16 02:16:50;;;;;;;;;;;10.60;99.90;;;;;;6212469;23;20280;-82
2023/03/16 02:19:23;;;;;;;;;;;10.60;99.90;;;;;;6212312;23;20368;-82
2023/03/16 02:21:58;;;;;;;;;;;10.60;99.90;;;;;;6185751;23;19904;-82
2023/03/16 02:24:23;;;;;;;;;;;10.60;99.90;;;;;;6212365;23;19900;-83
2023/03/16 02:26:55;;;;;;;;;;;10.50;99.90;;;;;;6212191;23;19966;-83
2023/03/16 02:29:38;;;;;;;;;;;10.40;99.90;;;;;;6212403;23;20264;-83
2023/03/16 02:32:04;;;;;;;;;;;10.40;99.90;;;;;;6211319;23;19975;-82
2023/03/16 02:34:30;;;;;;;;;;;10.40;99.90;;;;;;6213678;23;19958;-83
2023/03/16 02:36:55;;;;;;;;;;;10.40;99.90;;;;;;6212266;23;19900;-82
2023/03/16 02:39:21;;;;;;;;;;;10.40;99.90;;;;;;6212056;23;19904;-82
2023/03/16 02:41:46;;;;;;;;;;;10.40;99.90;;;;;;6212303;23;19934;-82
2023/03/16 02:44:23;;;;;;;;;;;10.30;99.90;;;;;;6211480;23;19907;-84
2023/03/16 02:46:51;;;;;;;;;;;10.20;99.90;;;;;;6212339;23;19974;-83
2023/03/16 02:49:20;;;;;;;;;;;10.20;99.90;;;;;;6212003;23;20344;-82
2023/03/16 02:51:46;;;;;;;;;;;10.10;99.90;;;;;;6212391;23;19907;-84
2023/03/16 02:54:11;;;;;;;;;;;10.10;99.90;;;;;;6211993;23;19900;-84
2023/03/16 02:56:37;;;;;;;;;;;10.00;99.90;;;;;;6212112;23;19903;-84
2023/03/16 02:59:02;;;;;;;;;;;10.00;99.90;;;;;;6185004;23;20446;-82
2023/03/16 03:01:28;;;;;;;;;;;9.90;99.90;;;;;;6212666;23;19900;-83
2023/03/16 03:03:53;;;;;;;;;;;9.90;99.90;;;;;;6212132;23;19906;-83
2023/03/16 03:06:20;;;;;;;;;;;9.80;99.90;;;;;;6211660;23;20321;-85
2023/03/16 03:08:46;;;;;;;;;;;9.80;99.90;;;;;;6211975;23;19900;-83
2023/03/16 03:11:11;;;;;;;;;;;9.80;99.90;;;;;;6211782;23;19899;-82
2023/03/16 03:13:38;;;;;;;;;;;9.80;99.90;;;;;;6211655;23;20241;-82
2023/03/16 03:16:04;;;;;;;;;;;9.80;99.90;;;;;;6211806;23;19915;-82
2023/03/16 03:18:29;;;;;;;;;;;9.80;99.90;;;;;;6213021;23;19904;-82
2023/03/16 03:20:55;;;;;;;;;;;9.70;99.90;;;;;;6211525;23;19914;-82
2023/03/16 03:23:20;;;;;;;;;;;9.70;99.90;;;;;;6211710;23;19954;-82
2023/03/16 03:25:46;;;;;;;;;;;9.70;99.90;;;;;;6211151;23;19904;-82
2023/03/16 03:28:13;;;;;;;;;;;9.60;99.90;;;;;;6211583;23;19900;-82
2023/03/16 03:30:39;;;;;;;;;;;9.60;99.90;;;;;;6212122;23;20245;-82
2023/03/16 03:33:04;;;;;;;;;;;9.50;99.90;;;;;;6211699;23;19942;-82
2023/03/16 03:35:30;;;;;;;;;;;9.50;99.90;;;;;;6212571;23;20248;-83
2023/03/16 03:37:56;;;;;;;;;;;9.40;99.90;;;;;;6211660;23;19979;-83
2023/03/16 03:40:21;;;;;;;;;;;9.40;99.90;;;;;;6210973;23;19899;-83
2023/03/16 03:42:47;;;;;;;;;;;9.40;99.90;;;;;;6211323;23;20321;-82
2023/03/16 03:45:13;;;;;;;;;;;9.30;99.90;;;;;;6211572;23;20237;-83
2023/03/16 03:47:39;;;;;;;;;;;9.30;99.90;;;;;;6185056;23;19899;-83
2023/03/16 03:50:05;;;;;;;;;;;9.20;99.90;;;;;;6211134;23;20034;-82
2023/03/16 03:52:31;;;;;;;;;;;9.10;99.90;;;;;;6212712;23;19983;-83
2023/03/16 03:54:56;;;;;;;;;;;9.10;99.90;;;;;;6184589;23;19915;-83
2023/03/16 03:57:22;;;;;;;;;;;9.10;99.90;;;;;;6211546;23;19959;-82
2023/03/16 03:59:47;;;;;;;;;;;9.10;99.90;;;;;;6211434;23;19900;-83
2023/03/16 04:02:13;;;;;;;;;;;9.10;99.90;;;;;;6211772;23;19900;-82
2023/03/16 04:04:39;;;;;;;;;;;9.00;99.90;;;;;;6210653;23;19900;-84
2023/03/16 04:07:05;;;;;;;;;;;9.10;99.90;;;;;;6211652;23;19899;-83
2023/03/16 04:09:34;;;;;;;;;;;9.10;99.90;;;;;;6212306;23;20277;-82
2023/03/16 04:12:00;;;;;;;;;;;9.10;99.90;;;;;;6211205;23;19908;-82
2023/03/16 04:14:26;;;;;;;;;;;9.10;99.90;;;;;;6211456;23;20736;-82
2023/03/16 04:16:53;;;;;;;;;;;9.20;99.90;;;;;;6211389;23;19959;-82
2023/03/16 04:19:19;;;;;;;;;;;9.00;99.90;;;;;;6211393;23;19914;-83
2023/03/16 04:21:45;;;;;;;;;;;9.00;99.90;;;;;;6210908;23;19987;-83
2023/03/16 04:24:13;;;;;;;;;;;8.90;99.90;;;;;;6211379;23;19900;-82
2023/03/16 04:26:43;;;;;;;;;;;8.90;99.90;;;;;;6211083;23;19900;-83
2023/03/16 04:29:10;;;;;;;;;;;8.80;99.90;;;;;;6211199;23;19906;-83
2023/03/16 04:31:35;;;;;;;;;;;8.80;99.90;;;;;;6212212;23;19923;-82
2023/03/16 04:34:01;;;;;;;;;;;8.70;99.90;;;;;;6210845;23;20237;-83
2023/03/16 04:36:27;;;;;;;;;;;8.60;99.90;;;;;;6210854;23;20389;-82
2023/03/16 04:38:52;;;;;;;;;;;8.70;99.90;;;;;;6210455;23;19900;-82
2023/03/16 04:41:18;;;;;;;;;;;8.60;99.90;;;;;;6211166;23;19911;-85
2023/03/16 04:43:43;;;;;;;;;;;8.60;99.90;;;;;;6211160;23;19908;-84
2023/03/16 04:46:09;;;;;;;;;;;8.50;99.90;;;;;;6211229;23;19967;-82
2023/03/16 04:48:34;;;;;;;;;;;8.50;99.90;;;;;;6212068;23;19907;-82
2023/03/16 04:51:00;;;;;;;;;;;8.40;99.90;;;;;;6211033;23;20303;-84
2023/03/16 04:53:26;;;;;;;;;;;8.40;99.90;;;;;;6210146;23;19907;-84
2023/03/16 04:55:52;;;;;;;;;;;8.40;99.90;;;;;;6210273;23;20317;-85
2023/03/16 04:58:17;;;;;;;;;;;8.20;99.90;;;;;;6210749;23;19900;-84
2023/03/16 05:00:43;;;;;;;;;;;8.20;99.90;;;;;;6210684;23;19900;-85
2023/03/16 05:03:13;;;;;;;;;;;8.60;99.90;;;;;;6212079;23;19903;-85
2023/03/16 05:05:39;;;;;;;;;;;8.20;99.90;;;;;;6185271;23;19907;-84
2023/03/16 05:08:05;;;;;;;;;;;8.40;99.90;;;;;;6211413;23;19907;-84
2023/03/16 05:10:31;;;;;;;;;;;8.20;99.90;;;;;;6211071;23;19900;-83
2023/03/16 05:12:57;;;;;;;;;;;8.10;99.90;;;;;;6210712;23;19899;-83
2023/03/16 05:15:23;;;;;;;;;;;8.10;99.90;;;;;;6210486;23;20221;-83
2023/03/16 05:17:48;;;;;;;;;;;7.80;99.90;;;;;;6210764;23;19900;-84
2023/03/16 05:20:14;;;;;;;;;;;8.00;99.90;;;;;;6210593;23;19908;-84
2023/03/16 05:22:40;;;;;;;;;;;8.10;99.90;;;;;;6211241;23;19911;-83
2023/03/16 05:25:06;;;;;;;;;;;8.10;99.90;;;;;;6211370;23;19899;-84
2023/03/16 05:27:33;;;;;;;;;;;8.10;99.90;;;;;;6210723;23;20324;-83
2023/03/16 05:30:00;;;;;;;;;;;8.30;99.90;;;;;;6210855;23;19900;-83
2023/03/16 05:32:26;;;;;;;;;;;8.10;99.90;;;;;;6210910;23;19923;-84
2023/03/16 05:34:52;;;;;;;;;;;8.10;99.90;;;;;;6209889;23;20241;-83
2023/03/16 05:37:18;;;;;;;;;;;8.10;99.90;;;;;;6209642;23;19904;-84
2023/03/16 05:39:43;;;;;;;;;;;8.10;99.90;;;;;;6210784;23;19900;-83
2023/03/16 05:42:09;;;;;;;;;;;8.80;99.90;;;;;;6212341;23;19914;-87
2023/03/16 05:44:34;;;;;;;;;;;8.20;99.90;;;;;;6185672;23;20206;-88
2023/03/16 05:47:00;;;;;;;;;;;7.70;99.90;;;;;;6213390;23;19911;-88
2023/03/16 05:49:25;;;;;;;;;;;7.90;99.90;;;;;;6185390;23;19960;-88
2023/03/16 05:51:51;;;;;;;;;;;8.10;99.90;;;;;;6212687;23;19907;-91
2023/03/16 05:54:16;;;;;;;;;;;8.90;99.90;;;;;;6185084;23;19904;-87
2023/03/16 05:56:42;;;;;;;;;;;8.80;99.90;;;;;;6213560;23;19911;-87
2023/03/16 05:59:07;;;;;;;;;;;7.90;99.90;;;;;;6213880;23;19900;-86
2023/03/16 06:01:36;;;;;;;;;;;7.90;99.90;;;;;;6186290;23;19932;-87
2023/03/16 06:04:02;;;;;;;;;;;7.80;99.90;;;;;;6186108;23;19974;-88
2023/03/16 06:06:27;;;;;;;;;;;7.60;99.90;;;;;;6186803;23;19947;-88
2023/03/16 06:08:53;;;;;;;;;;;8.10;99.90;;;;;;6212447;23;20337;-86
2023/03/16 06:11:18;;;;;;;;;;;8.10;99.90;;;;;;6212965;23;19983;-86
2023/03/16 06:13:44;;;;;;;;;;;7.70;99.90;;;;;;6212719;23;19899;-87
2023/03/16 06:16:12;;;;;;;;;;;7.60;99.90;;;;;;6205218;23;19911;-86
2023/03/16 06:18:38;;;;;;;;;;;7.60;99.90;;;;;;6208814;23;19978;-85
2023/03/16 06:21:04;;;;;;;;;;;7.50;99.90;;;;;;6210989;23;19939;-86
2023/03/16 06:23:29;;;;;;;;;;;7.40;99.90;;;;;;6210139;23;19930;-85
2023/03/16 06:25:55;;;;;;;;;;;9.20;99.90;;;;;;6211594;23;19903;-86
2023/03/16 06:28:21;;;;;;;;;;;8.40;99.90;;;;;;6185359;23;19954;-86
2023/03/16 06:30:47;;;;;;;;;;;8.10;99.90;;;;;;6212446;23;20409;-88
2023/03/16 06:33:12;;;;;;;;;;;9.10;99.90;;;;;;6186339;23;19900;-87
2023/03/16 06:35:38;;;;;;;;;;;7.50;99.90;;;;;;6212080;23;19908;-88
2023/03/16 06:38:03;;;;;;;;;;;7.30;99.90;;;;;;6186048;23;19966;-88
2023/03/16 06:40:29;;;;;;;;;;;8.90;99.90;;;;;;6212708;23;19935;-89
2023/03/16 06:42:55;;;;;;;;;;;7.80;99.90;;;;;;6212481;23;19899;-90
2023/03/16 06:45:21;;;;;;;;;;;7.40;99.90;;;;;;6212797;23;19907;-92
2023/03/16 06:47:47;;;;;;;;;;;7.50;99.90;;;;;;6186280;23;19935;-91
2023/03/16 06:50:13;;;;;;;;;;;8.20;99.90;;;;;;6213154;23;19903;-91
2023/03/16 06:52:38;;;;;;;;;;;8.10;99.90;;;;;;6212815;23;19907;-91
2023/03/16 06:55:04;;;;;;;;;;;8.20;99.90;;;;;;6211710;23;20226;-91
2023/03/16 06:57:30;;;;;;;;;;;7.50;99.90;;;;;;6186404;23;19935;-91
2023/03/16 06:59:56;;;;;;;;;;;8.00;99.90;;;;;;6212445;23;19907;-89
2023/03/16 07:02:22;;;;;;;;;;;7.60;99.90;;;;;;6212561;23;20329;-91
2023/03/16 07:04:51;;;;;;;;;;;7.40;99.90;;;;;;6212244;23;19907;-90
2023/03/16 07:07:18;;;;;;;;;;;7.80;99.90;;;;;;6211923;23;19927;-89
2023/03/16 07:09:43;;;;;;;;;;;7.40;99.90;;;;;;6213485;23;19911;-91
2023/03/16 07:12:09;;;;;;;;;;;9.00;99.90;;;;;;6211793;23;19899;-91
2023/03/16 07:14:34;;;;;;;;;;;7.50;99.90;;;;;;6185824;23;20321;-91
2023/03/16 07:17:00;;;;;;;;;;;7.60;99.90;;;;;;6212508;23;19977;-90
2023/03/16 07:19:26;;;;;;;;;;;7.60;99.90;;;;;;6212346;23;19912;-91
2023/03/16 07:21:52;;;;;;;;;;;7.50;99.90;;;;;;6212861;23;19907;-91
2023/03/16 07:24:17;;;;;;;;;;;7.70;99.90;;;;;;6185191;23;19906;-90
2023/03/16 07:26:43;;;;;;;;;;;9.20;99.90;;;;;;6187450;23;19948;-93
2023/03/16 07:29:08;;;;;;;;;;;7.70;99.90;;;;;;6185880;23;19900;-91
2023/03/16 07:31:36;;;;;;;;;;;7.70;99.90;;;;;;6212067;23;19931;-92
2023/03/16 07:34:02;;;;;;;;;;;8.20;99.90;;;;;;6211562;23;19974;-91
2023/03/16 07:36:28;;;;;;;;;;;9.00;99.90;;;;;;6212344;23;19915;-91
2023/03/16 07:38:54;;;;;;;;;;;8.50;99.90;;;;;;6185950;23;19900;-92
2023/03/16 07:41:20;;;;;;;;;;;9.20;99.90;;;;;;6212794;23;19903;-92
2023/03/16 07:43:46;;;;;;;;;;;8.50;99.90;;;;;;6186513;23;19900;-89
2023/03/16 07:46:12;;;;;;;;;;;9.00;99.90;;;;;;6211654;23;20213;-91
2023/03/16 07:48:42;;;;;;;;;;;8.50;99.90;;;;;;6212090;23;20414;-89
2023/03/16 07:51:08;;;;;;;;;;;8.50;99.90;;;;;;6210762;23;19911;-89
2023/03/16 07:53:34;;;;;;;;;;;9.30;99.90;;;;;;6211055;23;19899;-89
2023/03/16 07:56:00;;;;;;;;;;;8.80;99.90;;;;;;6211612;23;20436;-89
2023/03/16 07:58:26;;;;;;;;;;;8.70;99.90;;;;;;6211809;23;19907;-90
2023/03/16 08:00:54;;;;;;;;;;;9.40;99.90;;;;;;6211515;23;19927;-89
2023/03/16 08:03:20;;;;;;;;;;;9.10;99.90;;;;;;6211445;23;20329;-89
2023/03/16 08:05:45;;;;;;;;;;;9.20;99.90;;;;;;6212774;23;19899;-91
2023/03/16 08:08:11;;;;;;;;;;;9.60;99.90;;;;;;6211127;23;19900;-91
2023/03/16 08:10:36;;;;;;;;;;;9.50;99.90;;;;;;6185080;23;19900;-88
2023/03/16 08:13:03;;;;;;;;;;;9.90;99.90;;;;;;6185034;23;19899;-90
2023/03/16 08:15:31;;;;;;;;;;;9.80;99.90;;;;;;6184933;23;20296;-93
2023/03/16 08:17:58;;;;;;;;;;;9.90;99.90;;;;;;6211799;23;19900;-90
2023/03/16 08:20:23;;;;;;;;;;;10.10;99.90;;;;;;6185262;23;19978;-90
2023/03/16 08:22:49;;;;;;;;;;;10.30;99.90;;;;;;6184949;23;20264;-87
2023/03/16 08:25:15;;;;;;;;;;;10.30;99.90;;;;;;6185953;23;19931;-87
2023/03/16 08:27:41;;;;;;;;;;;10.50;99.90;;;;;;6211365;23;19903;-90
2023/03/16 08:30:10;;;;;;;;;;;10.80;99.90;;;;;;6183964;23;19987;-89
2023/03/16 08:32:36;;;;;;;;;;;10.70;99.90;;;;;;6183358;23;19904;-89
2023/03/16 08:35:02;;;;;;;;;;;10.70;99.90;;;;;;6183335;23;19987;-88
2023/03/16 08:37:27;;;;;;;;;;;11.40;99.90;;;;;;6209774;23;19979;-90
2023/03/16 08:39:53;;;;;;;;;;;10.80;99.90;;;;;;6183748;23;19981;-89
2023/03/16 08:42:19;;;;;;;;;;;10.90;99.90;;;;;;6210403;23;19900;-91
2023/03/16 08:44:46;;;;;;;;;;;11.00;99.90;;;;;;6184458;23;19903;-89
2023/03/16 08:47:13;;;;;;;;;;;11.10;99.90;;;;;;6209980;23;20269;-88
2023/03/16 08:49:38;;;;;;;;;;;11.20;99.90;;;;;;6210710;23;19899;-89
2023/03/16 08:52:04;;;;;;;;;;;11.30;99.90;;;;;;6210474;23;19899;-89
2023/03/16 08:54:31;;;;;;;;;;;11.40;99.90;;;;;;6209966;23;19904;-89
2023/03/16 08:56:56;;;;;;;;;;;11.50;99.90;;;;;;6210507;23;19903;-89
2023/03/16 08:59:22;;;;;;;;;;;11.60;99.90;;;;;;6210124;23;19932;-90
2023/03/16 09:01:47;;;;;;;;;;;11.70;99.90;;;;;;6211719;23;19931;-89
2023/03/16 09:04:13;;;;;;;;;;;11.70;99.90;;;;;;6210451;23;19899;-90
2023/03/16 09:06:39;;;;;;;;;;;11.80;99.90;;;;;;6210053;23;19900;-91
2023/03/16 09:09:04;;;;;;;;;;;11.90;99.90;;;;;;6184451;23;19900;-90
2023/03/16 09:11:32;;;;;;;;;;;11.90;99.90;;;;;;6210566;23;20295;-91
2023/03/16 09:13:58;;;;;;;;;;;12.00;99.90;;;;;;6210128;23;19931;-89
2023/03/16 09:16:24;;;;;;;;;;;12.00;99.90;;;;;;6182862;23;19958;-90
2023/03/16 09:18:51;;;;;;;;;;;12.10;99.90;;;;;;6210553;23;19908;-91
2023/03/16 09:21:17;;;;;;;;;;;12.10;99.90;;;;;;6211235;23;19907;-91
2023/03/16 09:23:42;;;;;;;;;;;12.20;99.90;;;;;;6184133;23;19900;-91
2023/03/16 09:26:09;;;;;;;;;;;12.40;99.90;;;;;;6210460;23;19907;-89
2023/03/16 09:28:35;;;;;;;;;;;12.60;99.90;;;;;;6210045;23;19904;-90
2023/03/16 09:31:01;;;;;;;;;;;12.80;99.90;;;;;;6183748;23;19911;-91
2023/03/16 09:33:28;;;;;;;;;;;13.00;99.90;;;;;;6210141;23;19931;-93
2023/03/16 09:35:56;;;;;;;;;;;13.00;99.90;;;;;;6183870;23;19992;-91
2023/03/16 09:38:23;;;;;;;;;;;13.10;99.90;;;;;;6210376;23;20241;-90
2023/03/16 09:40:54;;;;;;;;;;;13.20;99.90;;;;;;6185057;23;20237;-90
2023/03/16 09:43:39;;;;;;;;;;;13.30;99.90;;;;;;6210977;23;20372;-89
2023/03/16 09:46:14;;;;;;;;;;;13.40;99.90;;;;;;6210984;23;19931;-91
2023/03/16 09:48:40;;;;;;;;;;;13.40;99.90;;;;;;6183704;23;19900;-88
2023/03/16 09:51:21;;;;;;;;;;;13.40;99.90;;;;;;6210617;23;19907;-89
2023/03/16 09:53:49;;;;;;;;;;;13.50;99.90;;;;;;6211505;23;19900;-91
2023/03/16 09:56:19;;;;;;;;;;;13.60;99.90;;;;;;6210331;23;19931;-88
2023/03/16 09:58:44;;;;;;;;;;;13.60;99.90;;;;;;6210491;23;19907;-91
2023/03/16 10:01:19;;;;;;;;;;;13.70;99.90;;;;;;6209835;23;19904;-90
2023/03/16 10:04:05;;;;;;;;;;;13.70;99.90;;;;;;6209860;23;19900;-88
2023/03/16 10:06:31;;;;;;;;;;;13.80;99.90;;;;;;6209441;23;19904;-90
2023/03/16 10:09:16;;;;;;;;;;;13.80;99.90;;;;;;6210543;23;19986;-89
2023/03/16 10:11:44;;;;;;;;;;;13.90;99.90;;;;;;6210581;23;20359;-88
2023/03/16 10:14:17;;;;;;;;;;;14.00;99.90;;;;;;6183580;23;19900;-89
2023/03/16 10:16:50;;;;;;;;;;;14.00;99.90;;;;;;6183426;23;19943;-90
2023/03/16 10:19:18;;;;;;;;;;;13.90;99.90;;;;;;6210364;23;20309;-89
2023/03/16 10:21:44;;;;;;;;;;;13.80;99.90;;;;;;6183895;23;19903;-90
2023/03/16 10:24:33;;;;;;;;;;;13.90;99.90;;;;;;6183706;23;19907;-90
2023/03/16 10:26:59;;;;;;;;;;;13.90;99.90;;;;;;6116373;23;19900;-89
2023/03/16 10:29:35;;;;;;;;;;;13.90;99.90;;;;;;6182830;23;19904;-88
2023/03/16 10:32:05;;;;;;;;;;;13.90;99.90;;;;;;6211413;23;19983;-90
2023/03/16 10:34:31;;;;;;;;;;;13.90;99.90;;;;;;6211834;23;20321;-90
2023/03/16 10:36:56;;;;;;;;;;;13.90;99.90;;;;;;6211198;23;19903;-90
2023/03/16 10:39:22;;;;;;;;;;;14.00;99.90;;;;;;6184801;23;19915;-91
2023/03/16 10:41:54;;;;;;;;;;;14.10;99.90;;;;;;6211707;23;19911;-90
2023/03/16 10:44:25;;;;;;;;;;;14.20;99.90;;;;;;6213231;23;20376;-92
2023/03/16 10:46:58;;;;;;;;;;;14.30;99.90;;;;;;6186761;23;20329;-91
2023/03/16 10:49:26;;;;;;;;;;;14.30;99.90;;;;;;6212062;23;19900;-90
2023/03/16 10:51:53;;;;;;;;;;;14.30;99.90;;;;;;6212897;23;19904;-90
2023/03/16 10:54:22;;;;;;;;;;;14.40;99.90;;;;;;6212010;23;19950;-89
2023/03/16 10:56:49;;;;;;;;;;;14.40;99.90;;;;;;6212399;23;19908;-90
2023/03/16 10:59:30;;;;;;;;;;;14.40;99.90;;;;;;6185730;23;20328;-89
2023/03/16 11:01:57;;;;;;;;;;;14.40;99.90;;;;;;6212226;23;20336;-90
2023/03/16 11:04:23;;;;;;;;;;;14.50;99.90;;;;;;6186277;23;20021;-90
2023/03/16 11:06:52;;;;;;;;;;;14.60;99.90;;;;;;6212308;23;19958;-90
2023/03/16 11:09:19;;;;;;;;;;;14.60;99.90;;;;;;6211955;23;19900;-91
2023/03/16 11:11:48;;;;;;;;;;;14.60;99.90;;;;;;6185638;23;19903;-90
2023/03/16 11:14:14;;;;;;;;;;;14.60;99.90;;;;;;6212192;23;19983;-92
2023/03/16 11:16:43;;;;;;;;;;;14.60;99.90;;;;;;6185466;23;19946;-89
2023/03/16 11:19:21;;;;;;;;;;;14.70;99.90;;;;;;6211803;23;19904;-90
2023/03/16 11:22:06;;;;;;;;;;;14.80;99.90;;;;;;6212288;23;19903;-90
2023/03/16 11:24:44;;;;;;;;;;;15.00;99.90;;;;;;6211756;23;19900;-90
2023/03/16 11:27:23;;;;;;;;;;;15.30;99.90;;;;;;6185245;23;19900;-90
2023/03/16 11:29:58;;;;;;;;;;;15.50;99.90;;;;;;6185867;23;19907;-92
2023/03/16 11:32:44;;;;;;;;;;;15.80;99.90;;;;;;6212208;23;19903;-91
2023/03/16 11:35:15;;;;;;;;;;;15.90;99.90;;;;;;6212022;23;19908;-93
2023/03/16 11:37:50;;;;;;;;;;;15.90;99.90;;;;;;6212237;23;19935;-90
2023/03/16 11:40:35;;;;;;;;;;;16.00;99.90;;;;;;6212153;23;19904;-90
2023/03/16 11:43:01;;;;;;;;;;;16.10;99.90;;;;;;6185247;23;19957;-89
2023/03/16 11:45:27;;;;;;;;;;;16.20;99.90;;;;;;6185146;23;20340;-92
2023/03/16 11:48:11;;;;;;;;;;;16.20;99.90;;;;;;6212315;23;20329;-92
2023/03/16 11:51:00;;;;;;;;;;;16.20;99.90;;;;;;6186953;23;19923;-90
2023/03/16 11:53:34;;;;;;;;;;;16.20;99.90;;;;;;6185827;23;20237;-91
2023/03/16 11:56:08;;;;;;;;;;;16.30;99.90;;;;;;6184911;23;19950;-90
2023/03/16 11:58:52;;;;;;;;;;;16.20;99.90;;;;;;6185065;23;19900;-90
2023/03/16 12:01:23;;;;;;;;;;;16.30;99.90;;;;;;6210698;23;19900;-90
2023/03/16 12:03:52;;;;;;;;;;;16.40;99.90;;;;;;6185303;23;20329;-90
2023/03/16 12:06:40;;;;;;;;;;;16.40;99.90;;;;;;6184983;23;19924;-90
2023/03/16 12:09:25;;;;;;;;;;;16.40;99.90;;;;;;6184518;23;20325;-91
2023/03/16 12:12:21;;;;;;;;;;;16.40;99.90;;;;;;6211798;23;19904;-90
2023/03/16 12:15:01;;;;;;;;;;;16.50;99.90;;;;;;6210727;23;20088;-92
2023/03/16 12:17:29;;;;;;;;;;;16.70;99.90;;;;;;6185815;23;19904;-91
2023/03/16 12:19:58;;;;;;;;;;;16.80;99.90;;;;;;6185308;23;19908;-91
2023/03/16 12:22:33;;;;;;;;;;;16.80;99.90;;;;;;6212481;23;19954;-91
2023/03/16 12:24:59;;;;;;;;;;;16.70;99.90;;;;;;6184497;23;19907;-90
2023/03/16 12:27:33;;;;;;;;;;;16.80;99.90;;;;;;6185617;23;19900;-90
2023/03/16 12:29:59;;;;;;;;;;;16.90;99.90;;;;;;6184397;23;19982;-91
2023/03/16 12:32:54;;;;;;;;;;;17.00;99.90;;;;;;6185631;23;19942;-91
2023/03/16 12:35:25;;;;;;;;;;;17.10;99.90;;;;;;6054497;23;19909;-90
2023/03/16 12:38:11;;;;;;;;;;;17.10;99.90;;;;;;6184578;23;20332;-91
2023/03/16 12:40:51;;;;;;;;;;;17.20;99.90;;;;;;6210934;23;19904;-89
2023/03/16 12:43:35;;;;;;;;;;;17.20;99.90;;;;;;6212072;23;20329;-91
2023/03/16 12:46:18;;;;;;;;;;;17.10;99.90;;;;;;6184929;23;19903;-90
2023/03/16 12:48:46;;;;;;;;;;;17.20;99.90;;;;;;6211139;23;19900;-91
2023/03/16 12:51:12;;;;;;;;;;;17.10;99.90;;;;;;6184588;23;19900;-91
2023/03/16 12:53:57;;;;;;;;;;;17.20;99.90;;;;;;6184784;23;19906;-92
2023/03/16 12:56:31;;;;;;;;;;;17.30;99.90;;;;;;6211565;23;19930;-92
2023/03/16 12:59:01;;;;;;;;;;;17.50;99.90;;;;;;6185490;23;19900;-90
2023/03/16 13:01:27;;;;;;;;;;;17.30;99.90;;;;;;6211993;23;19945;-92
2023/03/16 13:04:22;;;;;;;;;;;17.40;99.90;;;;;;6211249;23;19900;-90
2023/03/16 13:07:00;;;;;;;;;;;17.50;99.90;;;;;;6153373;23;20340;-90
2023/03/16 13:09:27;;;;;;;;;;;17.50;99.90;;;;;;6211358;23;19907;-90
2023/03/16 13:11:53;;;;;;;;;;;17.50;99.90;;;;;;6210820;23;19900;-90
2023/03/16 13:14:39;;;;;;;;;;;17.60;99.90;;;;;;6210831;23;19903;-89
2023/03/16 13:17:14;;;;;;;;;;;17.60;99.90;;;;;;6210089;23;19915;-91
2023/03/16 13:19:43;;;;;;;;;;;18.10;99.90;;;;;;6184794;23;19912;-91
2023/03/16 13:22:18;;;;;;;;;;;17.90;99.90;;;;;;6184335;23;19939;-90
2023/03/16 13:25:04;;;;;;;;;;;17.90;99.90;;;;;;6184508;23;19907;-91
2023/03/16 13:27:33;;;;;;;;;;;17.90;99.90;;;;;;6136280;23;19904;-90
2023/03/16 13:30:00;;;;;;;;;;;18.00;99.90;;;;;;6212026;23;19904;-90
2023/03/16 13:32:30;;;;;;;;;;;18.10;99.90;;;;;;6185120;23;19906;-87
2023/03/16 13:34:57;;;;;;;;;;;18.20;99.90;;;;;;6211173;23;19918;-89
2023/03/16 13:37:23;;;;;;;;;;;18.20;99.90;;;;;;6210793;23;19900;-89
2023/03/16 13:39:53;;;;;;;;;;;18.10;99.90;;;;;;6183684;23;19925;-88
2023/03/16 13:42:20;;;;;;;;;;;18.10;99.90;;;;;;6209689;23;19908;-88
2023/03/16 13:44:46;;;;;;;;;;;18.00;99.90;;;;;;6210215;23;20406;-88
2023/03/16 13:47:15;;;;;;;;;;;18.00;99.90;;;;;;6183689;23;19982;-88
2023/03/16 13:49:46;;;;;;;;;;;18.00;99.90;;;;;;6183769;23;19911;-88
2023/03/16 13:52:21;;;;;;;;;;;18.00;99.90;;;;;;6209082;23;19979;-91
2023/03/16 13:54:47;;;;;;;;;;;18.10;99.90;;;;;;6209741;23;19908;-88
2023/03/16 13:57:14;;;;;;;;;;;19.70;99.90;;;;;;6209716;23;19907;-88
2023/03/16 13:59:42;;;;;;;;;;;18.20;99.90;;;;;;6183944;23;19900;-88
2023/03/16 14:02:25;;;;;;;;;;;18.30;99.90;;;;;;6210104;23;20253;-88
2023/03/16 14:04:51;;;;;;;;;;;18.30;99.90;;;;;;6184206;23;20863;-88
2023/03/16 14:07:18;;;;;;;;;;;18.30;99.90;;;;;;6211865;23;20324;-88
2023/03/16 14:09:45;;;;;;;;;;;18.40;99.90;;;;;;6185606;23;19954;-89
2023/03/16 14:12:14;;;;;;;;;;;18.40;99.90;;;;;;6212247;23;19904;-88
2023/03/16 14:14:40;;;;;;;;;;;18.40;99.90;;;;;;6185186;23;19899;-88
2023/03/16 14:17:10;;;;;;;;;;;18.40;99.90;;;;;;6211963;23;20287;-88
2023/03/16 14:19:43;;;;;;;;;;;18.50;99.90;;;;;;6211165;23;20388;-87
2023/03/16 14:22:11;;;;;;;;;;;18.60;99.90;;;;;;6211905;23;19932;-88
2023/03/16 14:24:38;;;;;;;;;;;18.60;99.90;;;;;;6211860;23;19927;-88
2023/03/16 14:27:16;;;;;;;;;;;18.80;99.90;;;;;;6212127;23;19900;-88
2023/03/16 14:29:42;;;;;;;;;;;18.80;99.90;;;;;;6211407;23;19904;-87